sensor_id;sensor_type;location;lat;lon;timestamp;pressure;altitude;pressure_sealevel;temperature;humidity
21182;BME280;10749;46.296;7.524;2022-07-29T00:01:20;94888.94;;;23.53;46.97
21182;BME280;10749;46.296;7.524;2022-07-29T00:03:46;94889.41;;;23.45;46.92
21182;BME280;10749;46.296;7.524;2022-07-29T00:06:11;94885.03;;;23.39;46.79
21182;BME280;10749;46.296;7.524;2022-07-29T00:08:36;94877.94;;;23.33;46.75
21182;BME280;10749;46.296;7.524;2022-07-29T00:11:01;94874.06;;;23.24;47.92
21182;BME280;10749;46.296;7.524;2022-07-29T00:13:27;94879.19;;;23.20;47.51
21182;BME280;10749;46.296;7.524;2022-07-29T00:15:52;94878.50;;;23.35;48.07
21182;BME280;10749;46.296;7.524;2022-07-29T00:18:17;94880.25;;;23.46;48.00
21182;BME280;10749;46.296;7.524;2022-07-29T00:20:43;94872.81;;;23.63;47.57
21182;BME280;10749;46.296;7.524;2022-07-29T00:23:08;94867.44;;;23.68;47.84
21182;BME280;10749;46.296;7.524;2022-07-29T00:25:33;94862.03;;;23.68;47.41
21182;BME280;10749;46.296;7.524;2022-07-29T00:27:59;94853.38;;;23.66;47.78
21182;BME280;10749;46.296;7.524;2022-07-29T00:30:24;94853.81;;;23.53;47.61
21182;BME280;10749;46.296;7.524;2022-07-29T00:32:49;94849.50;;;23.57;47.29
21182;BME280;10749;46.296;7.524;2022-07-29T00:35:15;94855.53;;;23.64;47.14
21182;BME280;10749;46.296;7.524;2022-07-29T00:37:59;94851.22;;;23.68;47.32
21182;BME280;10749;46.296;7.524;2022-07-29T00:40:24;94857.13;;;23.65;47.25
21182;BME280;10749;46.296;7.524;2022-07-29T00:42:50;94853.59;;;23.60;47.44
21182;BME280;10749;46.296;7.524;2022-07-29T00:45:16;94847.09;;;23.56;47.54
21182;BME280;10749;46.296;7.524;2022-07-29T00:47:42;94848.53;;;23.36;47.44
21182;BME280;10749;46.296;7.524;2022-07-29T00:50:09;94848.94;;;23.23;47.39
21182;BME280;10749;46.296;7.524;2022-07-29T00:52:36;94855.63;;;23.11;47.54
21182;BME280;10749;46.296;7.524;2022-07-29T00:55:03;94855.34;;;23.12;47.77
21182;BME280;10749;46.296;7.524;2022-07-29T00:57:29;94852.66;;;23.12;47.74
21182;BME280;10749;46.296;7.524;2022-07-29T00:59:55;94856.22;;;23.18;47.59
21182;BME280;10749;46.296;7.524;2022-07-29T01:02:21;94852.53;;;23.29;47.86
21182;BME280;10749;46.296;7.524;2022-07-29T01:04:46;94845.53;;;23.33;48.13
21182;BME280;10749;46.296;7.524;2022-07-29T01:07:11;94851.22;;;23.31;48.07
21182;BME280;10749;46.296;7.524;2022-07-29T01:09:38;94854.16;;;23.30;48.03
21182;BME280;10749;46.296;7.524;2022-07-29T01:12:04;94853.56;;;23.23;47.82
21182;BME280;10749;46.296;7.524;2022-07-29T01:14:30;94856.81;;;23.25;47.97
21182;BME280;10749;46.296;7.524;2022-07-29T01:17:05;94862.44;;;23.18;47.99
21182;BME280;10749;46.296;7.524;2022-07-29T01:30:25;94852.69;;;22.85;48.49
21182;BME280;10749;46.296;7.524;2022-07-29T01:33:03;94844.59;;;22.85;47.79
21182;BME280;10749;46.296;7.524;2022-07-29T01:35:36;94841.91;;;22.85;47.92
21182;BME280;10749;46.296;7.524;2022-07-29T01:38:13;94849.19;;;22.85;48.00
21182;BME280;10749;46.296;7.524;2022-07-29T01:40:49;94845.09;;;22.82;47.87
21182;BME280;10749;46.296;7.524;2022-07-29T01:43:20;94850.47;;;22.77;48.16
21182;BME280;10749;46.296;7.524;2022-07-29T01:46:02;94856.09;;;22.76;48.17
21182;BME280;10749;46.296;7.524;2022-07-29T01:51:14;94852.84;;;22.52;48.17
21182;BME280;10749;46.296;7.524;2022-07-29T01:56:18;94851.50;;;22.28;49.21
21182;BME280;10749;46.296;7.524;2022-07-29T01:58:45;94852.56;;;22.27;48.86
21182;BME280;10749;46.296;7.524;2022-07-29T02:01:13;94847.69;;;22.24;49.11
21182;BME280;10749;46.296;7.524;2022-07-29T02:03:43;94853.41;;;22.32;49.26
21182;BME280;10749;46.296;7.524;2022-07-29T02:06:09;94854.97;;;22.50;48.87
21182;BME280;10749;46.296;7.524;2022-07-29T02:08:37;94855.91;;;22.61;49.22
21182;BME280;10749;46.296;7.524;2022-07-29T02:11:04;94862.72;;;22.68;49.23
21182;BME280;10749;46.296;7.524;2022-07-29T02:13:31;94859.78;;;22.70;49.05
21182;BME280;10749;46.296;7.524;2022-07-29T02:16:00;94852.94;;;22.62;49.33
21182;BME280;10749;46.296;7.524;2022-07-29T02:18:28;94863.72;;;22.62;49.28
21182;BME280;10749;46.296;7.524;2022-07-29T02:20:56;94859.97;;;22.63;49.68
21182;BME280;10749;46.296;7.524;2022-07-29T02:23:24;94857.53;;;22.62;49.50
21182;BME280;10749;46.296;7.524;2022-07-29T02:25:53;94855.09;;;22.60;49.57
21182;BME280;10749;46.296;7.524;2022-07-29T02:28:22;94855.34;;;22.59;49.57
21182;BME280;10749;46.296;7.524;2022-07-29T02:30:50;94847.19;;;22.53;49.42
21182;BME280;10749;46.296;7.524;2022-07-29T02:33:17;94852.34;;;22.55;49.43
21182;BME280;10749;46.296;7.524;2022-07-29T02:35:44;94851.22;;;22.51;49.41
21182;BME280;10749;46.296;7.524;2022-07-29T02:38:14;94847.47;;;22.52;49.46
21182;BME280;10749;46.296;7.524;2022-07-29T02:41:00;94853.66;;;22.52;49.16
21182;BME280;10749;46.296;7.524;2022-07-29T02:43:26;94854.47;;;22.53;49.51
21182;BME280;10749;46.296;7.524;2022-07-29T02:45:54;94854.38;;;22.43;49.55
21182;BME280;10749;46.296;7.524;2022-07-29T02:48:23;94852.22;;;22.45;49.44
21182;BME280;10749;46.296;7.524;2022-07-29T02:50:58;94853.09;;;22.50;49.38
21182;BME280;10749;46.296;7.524;2022-07-29T02:53:26;94852.28;;;22.50;49.58
21182;BME280;10749;46.296;7.524;2022-07-29T02:55:58;94850.09;;;22.47;49.93
21182;BME280;10749;46.296;7.524;2022-07-29T02:58:34;94838.69;;;22.40;49.90
21182;BME280;10749;46.296;7.524;2022-07-29T03:01:07;94835.25;;;22.44;50.03
21182;BME280;10749;46.296;7.524;2022-07-29T03:03:36;94833.59;;;22.43;49.71
21182;BME280;10749;46.296;7.524;2022-07-29T03:06:03;94829.59;;;22.46;49.81
21182;BME280;10749;46.296;7.524;2022-07-29T03:08:31;94836.75;;;22.35;49.72
21182;BME280;10749;46.296;7.524;2022-07-29T03:10:57;94833.09;;;22.46;49.91
21182;BME280;10749;46.296;7.524;2022-07-29T03:13:23;94842.63;;;22.54;49.59
21182;BME280;10749;46.296;7.524;2022-07-29T03:15:50;94844.41;;;22.43;49.36
21182;BME280;10749;46.296;7.524;2022-07-29T03:18:15;94845.75;;;22.46;49.35
21182;BME280;10749;46.296;7.524;2022-07-29T03:20:41;94838.06;;;22.33;49.23
21182;BME280;10749;46.296;7.524;2022-07-29T03:23:07;94843.34;;;22.23;49.24
21182;BME280;10749;46.296;7.524;2022-07-29T03:25:33;94848.44;;;22.19;49.14
21182;BME280;10749;46.296;7.524;2022-07-29T03:27:58;94855.25;;;22.27;49.21
21182;BME280;10749;46.296;7.524;2022-07-29T03:30:24;94845.91;;;22.34;49.54
21182;BME280;10749;46.296;7.524;2022-07-29T03:32:50;94847.53;;;22.35;49.67
21182;BME280;10749;46.296;7.524;2022-07-29T03:35:16;94844.63;;;22.42;49.77
21182;BME280;10749;46.296;7.524;2022-07-29T03:37:42;94848.47;;;22.46;49.56
21182;BME280;10749;46.296;7.524;2022-07-29T03:40:10;94847.41;;;22.25;49.34
21182;BME280;10749;46.296;7.524;2022-07-29T03:42:38;94843.81;;;22.20;49.58
21182;BME280;10749;46.296;7.524;2022-07-29T03:45:10;94844.78;;;22.30;49.39
21182;BME280;10749;46.296;7.524;2022-07-29T03:47:40;94841.88;;;22.37;49.52
21182;BME280;10749;46.296;7.524;2022-07-29T03:50:10;94855.44;;;22.42;49.41
21182;BME280;10749;46.296;7.524;2022-07-29T03:52:37;94851.59;;;22.38;49.46
21182;BME280;10749;46.296;7.524;2022-07-29T03:55:03;94855.31;;;22.32;49.46
21182;BME280;10749;46.296;7.524;2022-07-29T03:57:30;94854.22;;;22.33;49.46
21182;BME280;10749;46.296;7.524;2022-07-29T03:59:56;94851.28;;;22.34;49.62
21182;BME280;10749;46.296;7.524;2022-07-29T04:02:23;94851.28;;;22.34;49.85
21182;BME280;10749;46.296;7.524;2022-07-29T04:04:48;94855.88;;;22.34;49.76
21182;BME280;10749;46.296;7.524;2022-07-29T04:07:14;94855.56;;;22.30;49.77
21182;BME280;10749;46.296;7.524;2022-07-29T04:09:40;94848.53;;;22.29;49.89
21182;BME280;10749;46.296;7.524;2022-07-29T04:12:05;94849.66;;;22.33;50.02
21182;BME280;10749;46.296;7.524;2022-07-29T04:14:32;94848.03;;;22.32;50.10
21182;BME280;10749;46.296;7.524;2022-07-29T04:16:57;94848.03;;;22.32;49.93
21182;BME280;10749;46.296;7.524;2022-07-29T04:19:23;94845.28;;;22.27;50.12
21182;BME280;10749;46.296;7.524;2022-07-29T04:21:48;94843.16;;;22.29;49.76
21182;BME280;10749;46.296;7.524;2022-07-29T04:24:13;94847.72;;;22.29;49.50
21182;BME280;10749;46.296;7.524;2022-07-29T04:26:39;94841.78;;;22.27;49.62
21182;BME280;10749;46.296;7.524;2022-07-29T04:29:04;94849.56;;;22.23;49.51
21182;BME280;10749;46.296;7.524;2022-07-29T04:31:29;94843.03;;;22.19;49.46
21182;BME280;10749;46.296;7.524;2022-07-29T04:33:55;94841.09;;;22.15;49.60
21182;BME280;10749;46.296;7.524;2022-07-29T04:36:20;94845.97;;;22.18;49.71
21182;BME280;10749;46.296;7.524;2022-07-29T04:38:45;94846.84;;;22.23;49.56
21182;BME280;10749;46.296;7.524;2022-07-29T04:41:11;94855.19;;;22.22;49.53
21182;BME280;10749;46.296;7.524;2022-07-29T04:43:36;94854.75;;;22.08;49.81
21182;BME280;10749;46.296;7.524;2022-07-29T04:46:03;94866.41;;;22.14;49.57
21182;BME280;10749;46.296;7.524;2022-07-29T04:48:28;94869.09;;;22.14;49.59
21182;BME280;10749;46.296;7.524;2022-07-29T04:50:54;94875.03;;;22.16;49.57
21182;BME280;10749;46.296;7.524;2022-07-29T04:53:19;94881.53;;;22.15;49.26
21182;BME280;10749;46.296;7.524;2022-07-29T04:55:44;94884.16;;;22.09;50.08
21182;BME280;10749;46.296;7.524;2022-07-29T04:58:10;94880.94;;;22.13;49.98
21182;BME280;10749;46.296;7.524;2022-07-29T05:00:36;94893.66;;;22.17;49.94
21182;BME280;10749;46.296;7.524;2022-07-29T05:03:01;94890.75;;;22.19;50.23
21182;BME280;10749;46.296;7.524;2022-07-29T05:05:26;94893.97;;;22.21;50.10
21182;BME280;10749;46.296;7.524;2022-07-29T05:07:52;94887.47;;;22.17;50.09
21182;BME280;10749;46.296;7.524;2022-07-29T05:10:17;94882.16;;;22.22;50.48
21182;BME280;10749;46.296;7.524;2022-07-29T05:12:42;94876.75;;;22.22;50.04
21182;BME280;10749;46.296;7.524;2022-07-29T05:15:08;94881.31;;;22.21;50.35
21182;BME280;10749;46.296;7.524;2022-07-29T05:17:34;94879.97;;;22.19;50.58
21182;BME280;10749;46.296;7.524;2022-07-29T05:19:59;94882.72;;;22.24;50.67
21182;BME280;10749;46.296;7.524;2022-07-29T05:22:25;94885.41;;;22.24;50.93
21182;BME280;10749;46.296;7.524;2022-07-29T05:24:50;94889.28;;;22.33;50.94
21182;BME280;10749;46.296;7.524;2022-07-29T05:27:15;94894.56;;;22.44;50.27
21182;BME280;10749;46.296;7.524;2022-07-29T05:29:40;94896.47;;;22.49;50.37
21182;BME280;10749;46.296;7.524;2022-07-29T05:32:06;94904.56;;;22.49;50.23
21182;BME280;10749;46.296;7.524;2022-07-29T05:34:31;94900.72;;;22.40;50.45
21182;BME280;10749;46.296;7.524;2022-07-29T05:36:57;94894.56;;;22.44;50.62
21182;BME280;10749;46.296;7.524;2022-07-29T05:39:23;94890.31;;;22.48;50.60
21182;BME280;10749;46.296;7.524;2022-07-29T05:41:48;94898.44;;;22.53;50.03
21182;BME280;10749;46.296;7.524;2022-07-29T05:44:13;94894.97;;;22.58;49.82
21182;BME280;10749;46.296;7.524;2022-07-29T05:46:39;94903.66;;;22.60;50.06
21182;BME280;10749;46.296;7.524;2022-07-29T05:49:05;94902.00;;;22.59;49.90
21182;BME280;10749;46.296;7.524;2022-07-29T05:51:32;94902.81;;;22.60;49.92
21182;BME280;10749;46.296;7.524;2022-07-29T05:53:57;94899.84;;;22.61;50.23
21182;BME280;10749;46.296;7.524;2022-07-29T05:56:23;94909.66;;;22.67;49.81
21182;BME280;10749;46.296;7.524;2022-07-29T05:58:49;94914.56;;;22.70;49.87
21182;BME280;10749;46.296;7.524;2022-07-29T06:01:14;94913.00;;;22.74;50.29
21182;BME280;10749;46.296;7.524;2022-07-29T06:03:39;94910.56;;;22.73;50.25
21182;BME280;10749;46.296;7.524;2022-07-29T06:06:06;94911.16;;;22.80;50.27
21182;BME280;10749;46.296;7.524;2022-07-29T06:08:32;94909.28;;;22.80;50.28
21182;BME280;10749;46.296;7.524;2022-07-29T06:10:58;94909.28;;;22.80;50.56
21182;BME280;10749;46.296;7.524;2022-07-29T06:13:24;94902.78;;;22.76;50.19
21182;BME280;10749;46.296;7.524;2022-07-29T06:15:49;94899.56;;;22.79;50.36
21182;BME280;10749;46.296;7.524;2022-07-29T06:18:14;94896.94;;;22.84;50.43
21182;BME280;10749;46.296;7.524;2022-07-29T06:20:40;94892.72;;;22.98;50.26
21182;BME280;10749;46.296;7.524;2022-07-29T06:23:06;94893.91;;;23.08;50.04
21182;BME280;10749;46.296;7.524;2022-07-29T06:25:31;94895.59;;;23.14;50.31
21182;BME280;10749;46.296;7.524;2022-07-29T06:28:01;94896.78;;;23.23;49.84
21182;BME280;10749;46.296;7.524;2022-07-29T06:30:26;94892.47;;;23.27;49.95
21182;BME280;10749;46.296;7.524;2022-07-29T06:32:53;94899.72;;;23.21;49.76
21182;BME280;10749;46.296;7.524;2022-07-29T06:35:20;94895.19;;;23.32;49.83
21182;BME280;10749;46.296;7.524;2022-07-29T06:37:45;94896.53;;;23.29;49.46
21182;BME280;10749;46.296;7.524;2022-07-29T06:40:11;94898.13;;;23.25;49.41
21182;BME280;10749;46.296;7.524;2022-07-29T06:42:55;94889.25;;;23.30;49.26
21182;BME280;10749;46.296;7.524;2022-07-29T06:45:20;94884.00;;;23.45;49.35
21182;BME280;10749;46.296;7.524;2022-07-29T06:47:46;94886.31;;;23.63;49.32
21182;BME280;10749;46.296;7.524;2022-07-29T06:50:11;94886.38;;;23.73;49.00
21182;BME280;10749;46.296;7.524;2022-07-29T06:52:38;94882.09;;;23.82;48.80
21182;BME280;10749;46.296;7.524;2022-07-29T06:55:03;94892.13;;;23.87;48.60
21182;BME280;10749;46.296;7.524;2022-07-29T06:57:29;94879.47;;;23.92;48.79
21182;BME280;10749;46.296;7.524;2022-07-29T06:59:56;94881.16;;;24.04;48.52
21182;BME280;10749;46.296;7.524;2022-07-29T07:02:21;94885.56;;;24.15;48.30
21182;BME280;10749;46.296;7.524;2022-07-29T07:04:46;94882.91;;;24.25;47.97
21182;BME280;10749;46.296;7.524;2022-07-29T07:07:12;94880.25;;;24.30;48.19
21182;BME280;10749;46.296;7.524;2022-07-29T07:09:37;94880.75;;;24.22;47.82
21182;BME280;10749;46.296;7.524;2022-07-29T07:12:02;94879.09;;;24.16;47.87
21182;BME280;10749;46.296;7.524;2022-07-29T07:14:28;94879.69;;;24.28;48.23
21182;BME280;10749;46.296;7.524;2022-07-29T07:16:53;94879.22;;;24.46;48.29
21182;BME280;10749;46.296;7.524;2022-07-29T07:19:19;94880.34;;;24.60;47.67
21182;BME280;10749;46.296;7.524;2022-07-29T07:21:44;94873.13;;;24.76;47.88
21182;BME280;10749;46.296;7.524;2022-07-29T07:24:09;94877.44;;;24.82;47.97
21182;BME280;10749;46.296;7.524;2022-07-29T07:26:35;94860.69;;;24.85;47.54
21182;BME280;10749;46.296;7.524;2022-07-29T07:29:00;94861.50;;;24.86;47.40
21182;BME280;10749;46.296;7.524;2022-07-29T07:31:25;94858.25;;;24.83;47.46
21182;BME280;10749;46.296;7.524;2022-07-29T07:33:50;94869.03;;;24.78;47.16
21182;BME280;10749;46.296;7.524;2022-07-29T07:36:17;94864.72;;;24.82;47.51
21182;BME280;10749;46.296;7.524;2022-07-29T07:38:42;94864.78;;;24.88;47.02
21182;BME280;10749;46.296;7.524;2022-07-29T07:41:07;94866.41;;;24.99;47.47
21182;BME280;10749;46.296;7.524;2022-07-29T07:43:33;94860.72;;;25.10;47.29
21182;BME280;10749;46.296;7.524;2022-07-29T07:45:58;94858.03;;;25.15;47.10
21182;BME280;10749;46.296;7.524;2022-07-29T07:48:24;94855.06;;;25.22;46.95
21182;BME280;10749;46.296;7.524;2022-07-29T07:50:49;94851.81;;;25.20;46.91
21182;BME280;10749;46.296;7.524;2022-07-29T07:53:15;94851.25;;;25.18;46.94
21182;BME280;10749;46.296;7.524;2022-07-29T07:55:41;94848.53;;;25.18;46.70
21182;BME280;10749;46.296;7.524;2022-07-29T07:58:07;94854.78;;;25.18;46.59
21182;BME280;10749;46.296;7.524;2022-07-29T08:00:33;94842.63;;;25.21;46.74
21182;BME280;10749;46.296;7.524;2022-07-29T08:02:58;94849.94;;;25.25;46.44
21182;BME280;10749;46.296;7.524;2022-07-29T08:05:23;94841.50;;;25.27;46.78
21182;BME280;10749;46.296;7.524;2022-07-29T08:07:49;94848.31;;;25.30;46.47
21182;BME280;10749;46.296;7.524;2022-07-29T08:10:16;94850.19;;;25.29;46.62
21182;BME280;10749;46.296;7.524;2022-07-29T08:13:09;94852.63;;;25.31;46.54
21182;BME280;10749;46.296;7.524;2022-07-29T08:15:36;94851.81;;;25.35;46.33
21182;BME280;10749;46.296;7.524;2022-07-29T08:18:01;94857.22;;;25.35;45.92
21182;BME280;10749;46.296;7.524;2022-07-29T08:20:27;94855.59;;;25.24;44.97
21182;BME280;10749;46.296;7.524;2022-07-29T08:22:52;94856.16;;;25.26;45.97
21182;BME280;10749;46.296;7.524;2022-07-29T08:25:18;94865.09;;;25.32;45.70
21182;BME280;10749;46.296;7.524;2022-07-29T08:27:48;94861.28;;;25.27;45.65
21182;BME280;10749;46.296;7.524;2022-07-29T08:30:13;94869.16;;;25.34;45.78
21182;BME280;10749;46.296;7.524;2022-07-29T08:32:39;94870.75;;;25.05;45.11
21182;BME280;10749;46.296;7.524;2022-07-29T08:35:04;94863.44;;;25.10;45.95
21182;BME280;10749;46.296;7.524;2022-07-29T08:37:30;94865.38;;;25.25;46.04
21182;BME280;10749;46.296;7.524;2022-07-29T08:39:55;94874.31;;;25.41;46.07
21182;BME280;10749;46.296;7.524;2022-07-29T08:42:21;94874.03;;;25.27;45.02
21182;BME280;10749;46.296;7.524;2022-07-29T08:44:46;94870.22;;;25.18;45.50
21182;BME280;10749;46.296;7.524;2022-07-29T08:47:13;94876.19;;;25.05;45.26
21182;BME280;10749;46.296;7.524;2022-07-29T08:49:39;94866.97;;;25.16;45.44
21182;BME280;10749;46.296;7.524;2022-07-29T08:52:05;94859.91;;;25.00;45.34
21182;BME280;10749;46.296;7.524;2022-07-29T08:54:30;94857.47;;;24.98;45.22
21182;BME280;10749;46.296;7.524;2022-07-29T08:56:56;94856.13;;;24.96;45.46
21182;BME280;10749;46.296;7.524;2022-07-29T08:59:24;94854.97;;;24.81;45.55
21182;BME280;10749;46.296;7.524;2022-07-29T09:01:52;94852.81;;;24.83;45.24
21182;BME280;10749;46.296;7.524;2022-07-29T09:04:18;94857.19;;;24.95;45.49
21182;BME280;10749;46.296;7.524;2022-07-29T09:06:47;94859.13;;;25.04;44.89
21182;BME280;10749;46.296;7.524;2022-07-29T09:09:13;94854.53;;;25.05;44.75
21182;BME280;10749;46.296;7.524;2022-07-29T09:11:40;94853.41;;;24.96;45.30
21182;BME280;10749;46.296;7.524;2022-07-29T09:14:05;94845.59;;;25.09;44.52
21182;BME280;10749;46.296;7.524;2022-07-29T09:16:50;94855.84;;;25.02;44.28
21182;BME280;10749;46.296;7.524;2022-07-29T09:19:24;94856.66;;;24.98;44.18
21182;BME280;10749;46.296;7.524;2022-07-29T09:21:50;94856.41;;;25.04;44.39
21182;BME280;10749;46.296;7.524;2022-07-29T09:24:29;94859.38;;;25.18;44.32
21182;BME280;10749;46.296;7.524;2022-07-29T09:27:01;94862.38;;;25.42;44.58
21182;BME280;10749;46.296;7.524;2022-07-29T09:29:27;94874.03;;;25.47;43.63
21182;BME280;10749;46.296;7.524;2022-07-29T09:31:54;94873.75;;;25.39;43.88
21182;BME280;10749;46.296;7.524;2022-07-29T09:34:23;94869.69;;;25.51;43.84
21182;BME280;10749;46.296;7.524;2022-07-29T09:36:50;94870.78;;;25.50;43.30
21182;BME280;10749;46.296;7.524;2022-07-29T09:39:35;94868.91;;;25.51;43.46
21182;BME280;10749;46.296;7.524;2022-07-29T09:42:04;94875.38;;;25.45;43.27
21182;BME280;10749;46.296;7.524;2022-07-29T09:44:47;94879.16;;;25.44;43.43
21182;BME280;10749;46.296;7.524;2022-07-29T09:47:17;94879.72;;;25.41;43.44
21182;BME280;10749;46.296;7.524;2022-07-29T09:49:57;94879.44;;;25.37;43.48
21182;BME280;10749;46.296;7.524;2022-07-29T09:52:26;94875.63;;;25.23;43.53
21182;BME280;10749;46.296;7.524;2022-07-29T09:54:52;94881.88;;;25.28;43.19
21182;BME280;10749;46.296;7.524;2022-07-29T09:57:28;94885.66;;;25.22;43.02
21182;BME280;10749;46.296;7.524;2022-07-29T10:00:05;94887.28;;;25.23;43.84
21182;BME280;10749;46.296;7.524;2022-07-29T10:02:34;94896.78;;;25.31;43.54
21182;BME280;10749;46.296;7.524;2022-07-29T10:05:01;94897.59;;;25.37;43.38
21182;BME280;10749;46.296;7.524;2022-07-29T10:07:46;94898.69;;;25.41;43.38
21182;BME280;10749;46.296;7.524;2022-07-29T10:10:19;94907.06;;;25.39;43.46
21182;BME280;10749;46.296;7.524;2022-07-29T10:12:52;94912.78;;;25.38;43.61
21182;BME280;10749;46.296;7.524;2022-07-29T10:15:18;94912.75;;;25.27;43.84
21182;BME280;10749;46.296;7.524;2022-07-29T10:17:44;94920.63;;;25.29;43.68
21182;BME280;10749;46.296;7.524;2022-07-29T10:20:09;94929.22;;;25.06;44.19
21182;BME280;10749;46.296;7.524;2022-07-29T10:22:35;94922.78;;;25.17;44.18
21182;BME280;10749;46.296;7.524;2022-07-29T10:25:01;94932.50;;;25.18;43.95
21182;BME280;10749;46.296;7.524;2022-07-29T10:27:27;94937.13;;;25.12;43.71
21182;BME280;10749;46.296;7.524;2022-07-29T10:29:53;94950.91;;;25.11;43.98
21182;BME280;10749;46.296;7.524;2022-07-29T10:32:31;94950.63;;;25.02;44.55
21182;BME280;10749;46.296;7.524;2022-07-29T10:35:21;94952.50;;;24.92;45.15
21182;BME280;10749;46.296;7.524;2022-07-29T10:38:07;94955.31;;;24.60;46.01
21182;BME280;10749;46.296;7.524;2022-07-29T10:43:27;94983.72;;;24.62;45.85
21182;BME280;10749;46.296;7.524;2022-07-29T10:45:58;95005.22;;;24.37;47.68
21182;BME280;10749;46.296;7.524;2022-07-29T10:48:24;95005.53;;;24.41;46.81
21182;BME280;10749;46.296;7.524;2022-07-29T10:50:54;95017.44;;;24.45;46.52
21182;BME280;10749;46.296;7.524;2022-07-29T10:53:22;95019.28;;;24.34;47.58
21182;BME280;10749;46.296;7.524;2022-07-29T10:55:48;95018.69;;;24.27;48.56
21182;BME280;10749;46.296;7.524;2022-07-29T11:00:40;95028.66;;;24.21;47.70
21182;BME280;10749;46.296;7.524;2022-07-29T11:03:06;95027.94;;;24.36;47.71
21182;BME280;10749;46.296;7.524;2022-07-29T11:05:52;95031.00;;;24.50;47.90
21182;BME280;10749;46.296;7.524;2022-07-29T11:08:19;95035.69;;;24.59;48.29
21182;BME280;10749;46.296;7.524;2022-07-29T11:10:50;95036.78;;;24.68;48.01
21182;BME280;10749;46.296;7.524;2022-07-29T11:16:13;95047.41;;;24.75;48.83
21182;BME280;10749;46.296;7.524;2022-07-29T11:21:42;95037.94;;;24.77;49.46
21182;BME280;10749;46.296;7.524;2022-07-29T11:24:22;95044.16;;;24.78;49.57
21182;BME280;10749;46.296;7.524;2022-07-29T11:27:30;95032.50;;;24.77;49.60
21182;BME280;10749;46.296;7.524;2022-07-29T11:29:58;95029.81;;;24.77;50.17
21182;BME280;10749;46.296;7.524;2022-07-29T11:32:40;95029.28;;;24.75;49.38
21182;BME280;10749;46.296;7.524;2022-07-29T11:35:19;95025.75;;;24.75;49.74
21182;BME280;10749;46.296;7.524;2022-07-29T11:46:48;95026.59;;;24.80;50.16
21182;BME280;10749;46.296;7.524;2022-07-29T11:49:24;95025.56;;;24.87;50.20
21182;BME280;10749;46.296;7.524;2022-07-29T11:51:57;95017.47;;;24.92;50.03
21182;BME280;10749;46.296;7.524;2022-07-29T11:54:33;95015.56;;;24.97;49.76
21182;BME280;10749;46.296;7.524;2022-07-29T11:56:59;95020.22;;;25.07;49.80
21182;BME280;10749;46.296;7.524;2022-07-29T11:59:25;95022.41;;;25.15;49.83
21182;BME280;10749;46.296;7.524;2022-07-29T12:01:55;95009.16;;;25.23;50.28
21182;BME280;10749;46.296;7.524;2022-07-29T12:04:20;95008.94;;;25.30;50.19
21182;BME280;10749;46.296;7.524;2022-07-29T12:06:53;95002.44;;;25.36;50.10
21182;BME280;10749;46.296;7.524;2022-07-29T12:09:19;95003.53;;;25.40;50.22
21182;BME280;10749;46.296;7.524;2022-07-29T12:11:45;95008.41;;;25.43;49.88
21182;BME280;10749;46.296;7.524;2022-07-29T12:16:50;95005.69;;;25.43;49.66
21182;BME280;10749;46.296;7.524;2022-07-29T12:19:15;95001.88;;;25.39;49.67
21182;BME280;10749;46.296;7.524;2022-07-29T12:21:47;95004.06;;;25.37;49.64
21182;BME280;10749;46.296;7.524;2022-07-29T12:24:14;94997.84;;;25.37;50.05
21182;BME280;10749;46.296;7.524;2022-07-29T12:26:58;94997.00;;;25.36;49.78
21182;BME280;10749;46.296;7.524;2022-07-29T12:29:25;95000.28;;;25.38;49.83
21182;BME280;10749;46.296;7.524;2022-07-29T12:31:53;94989.72;;;25.37;50.16
21182;BME280;10749;46.296;7.524;2022-07-29T12:34:21;94993.22;;;25.32;49.78
21182;BME280;10749;46.296;7.524;2022-07-29T12:36:48;94990.47;;;25.22;49.64
21182;BME280;10749;46.296;7.524;2022-07-29T12:39:15;94991.56;;;25.16;49.63
21182;BME280;10749;46.296;7.524;2022-07-29T12:41:41;94992.63;;;25.15;49.90
21182;BME280;10749;46.296;7.524;2022-07-29T12:44:07;94991.56;;;25.21;50.29
21182;BME280;10749;46.296;7.524;2022-07-29T12:46:32;94994.81;;;25.28;50.60
21182;BME280;10749;46.296;7.524;2022-07-29T12:48:57;94987.22;;;25.20;50.79
21182;BME280;10749;46.296;7.524;2022-07-29T12:51:35;94982.34;;;25.17;50.35
21182;BME280;10749;46.296;7.524;2022-07-29T12:54:07;94992.13;;;25.28;50.50
21182;BME280;10749;46.296;7.524;2022-07-29T12:56:33;94993.22;;;25.37;50.43
21182;BME280;10749;46.296;7.524;2022-07-29T12:58:59;94995.97;;;25.42;50.76
21182;BME280;10749;46.296;7.524;2022-07-29T13:01:24;94988.63;;;25.48;50.75
21182;BME280;10749;46.296;7.524;2022-07-29T13:03:57;94997.31;;;25.50;50.43
21182;BME280;10749;46.296;7.524;2022-07-29T13:09:14;94997.56;;;25.38;50.17
21182;BME280;10749;46.296;7.524;2022-07-29T13:11:50;95000.28;;;25.33;49.94
21182;BME280;10749;46.296;7.524;2022-07-29T13:14:36;95012.16;;;25.17;49.82
21182;BME280;10749;46.296;7.524;2022-07-29T13:21:59;95019.09;;;24.98;50.41
21182;BME280;10749;46.296;7.524;2022-07-29T13:24:24;95023.22;;;24.58;51.08
21182;BME280;10749;46.296;7.524;2022-07-29T13:26:50;95030.03;;;24.24;51.83
21182;BME280;10749;46.296;7.524;2022-07-29T13:29:17;95033.72;;;24.13;51.57
21182;BME280;10749;46.296;7.524;2022-07-29T13:31:42;95042.28;;;24.05;51.41
21182;BME280;10749;46.296;7.524;2022-07-29T13:34:08;95037.44;;;24.07;51.56
21182;BME280;10749;46.296;7.524;2022-07-29T13:36:33;95044.66;;;24.28;51.15
21182;BME280;10749;46.296;7.524;2022-07-29T13:38:58;95042.38;;;24.52;50.75
21182;BME280;10749;46.296;7.524;2022-07-29T13:41:26;95049.75;;;24.61;50.83
21182;BME280;10749;46.296;7.524;2022-07-29T13:43:51;95043.66;;;24.39;51.40
21182;BME280;10749;46.296;7.524;2022-07-29T13:46:16;95044.56;;;24.55;50.89
21182;BME280;10749;46.296;7.524;2022-07-29T13:48:42;95043.31;;;24.67;50.79
21182;BME280;10749;46.296;7.524;2022-07-29T13:51:07;95052.53;;;24.71;50.84